Report METAR

 

KSJC - San Jose, California, USA
Distance from station: NE 14km
Dati ricevuti: 29/06/2022 13:53
Sereno
Sereno
 Vento da NNO
Vento: NNO 6 km/h
Temperatura: 13°C
P.to Rugiada: 11°C
Umidità: 88%
Barometro: 1016.3 hPa
Nuvole: Sereno
Visibility: 16 km
2022/06/29 11:53 KSJC 291153Z AUTO 33003KT 10SM CLR 13/11 A3001 RMK AO2 SLP163 T01330111 10172 20133 56002
KNUQ - Moffett Nas/Mtn, California, USA
Distance from station: N 14km
Dati ricevuti: 28/06/2022 13:55
DATI Obsoleti

 Vento da calmo
Vento: Calma
Temperatura: 15°C
P.to Rugiada: 12°C
Umidità: 82%
Barometro: 1017.9 hPa
Visibility: 16 km
2022/06/28 11:55 KNUQ 281155Z AUTO 00000KT 10SM 15/12 A3006 RMK AO2
 
KPAO - Palo Alto, California, USA
Distance from station: NNO 23km
Dati ricevuti: 29/06/2022 05:47
DATI Obsoleti
Sereno
Sereno
 Vento da NO
Vento: NO 15 km/h
Temperatura: 19°C
P.to Rugiada: 8°C
Umidità: 49%
Barometro: 1015.9 hPa
Nuvole: Sereno
Visibility: 16 km
2022/06/29 03:47 KPAO 290347Z 31008KT 10SM SKC 19/08 A3000 RMK LAST
KRHV - San Jose/Reid, California, USA
Distance from station: ENE 19km
Dati ricevuti: 29/06/2022 06:55
DATI Obsoleti
Sereno
Sereno
 Vento da ONO
Vento: ONO 11 km/h
Temperatura: 19°C
P.to Rugiada: 10°C
Umidità: 56%
Barometro: 1016.9 hPa
Nuvole: Sereno
Visibility: 16 km
2022/06/29 04:55 KRHV 290455Z 30006KT 10SM SKC 19/10 A3003 RMK LAST
 
KOAK - Oakland, California, USA
Distance from station: NNO 50km
Dati ricevuti: 29/06/2022 13:53
Molto nuvoloso
Molto nuvoloso
 Vento da ONO
Vento: ONO 7 km/h
Temperatura: 14°C
P.to Rugiada: 11°C
Umidità: 82%
Barometro: 1016.9 hPa
Nuvole: Molto nuvoloso
Visibility: 16 km
Cloud details: Molto nuvoloso 244 m
Molto nuvoloso 366 m
2022/06/29 11:53 KOAK 291153Z 30004KT 10SM BKN008 BKN012 14/11 A3003 RMK AO2 SLP166 T01390111 10161 20133 55001
KSQL - San Carlos Airpo, California, USA
Distance from station: NO 34km
Dati ricevuti: 29/06/2022 14:35
Sereno
Sereno
 Vento da calmo
Vento: Calma
Temperatura: 14°C
P.to Rugiada: 10°C
Umidità: 77%
Barometro: 1016.9 hPa
Nuvole: Sereno
Visibility: 16 km
2022/06/29 12:35 KSQL 291235Z AUTO 00000KT 10SM CLR 14/10 A3003 RMK AO2
 
KSFO - San Francisco, California, USA
Distance from station: NO 49km
Dati ricevuti: 29/06/2022 14:38
Molto nuvoloso
Molto nuvoloso
 Vento da O
Vento: O 15 km/h
Temperatura: 13°C
P.to Rugiada: 11°C
Umidità: 88%
Barometro: 1016.6 hPa
Nuvole: Molto nuvoloso
Visibility: 16 km
Cloud details: Few Clouds 122 m
Molto nuvoloso 274 m
2022/06/29 12:38 KSFO 291238Z 26008KT 10SM FEW004 BKN009 13/11 A3002 RMK AO2 T01330106
KE16 - San Martin, California, USA
Distance from station: ESE 43km
Dati ricevuti: 29/06/2022 14:35
Sereno
Sereno
 Vento da NNE
Vento: NNE 6 km/h
Temperatura: 14°C
P.to Rugiada: 10°C
Umidità: 77%
Barometro: 1016.9 hPa
Nuvole: Sereno
Visibility: 16 km
2022/06/29 12:35 KE16 291235Z AUTO 02003KT 10SM CLR 14/10 A3003 RMK AO2 PWINO PNO
 
KWVI - Watsonville, California, USA
Distance from station: SSE 44km
Dati ricevuti: 29/06/2022 13:53
Sereno
Sereno
 Vento da calmo
Vento: Calma
Temperatura: 10°C
P.to Rugiada: 9°C
Umidità: 94%
Barometro: 1016.3 hPa
Nuvole: Sereno
Visibility: 16 km
2022/06/29 11:53 KWVI 291153Z AUTO 00000KT 10SM CLR 10/09 A3001 RMK AO2 SLP163 T01000094 10133 20094 56002
KHAF - Half Moon Bay, California, USA
Distance from station: ONO 50km
Dati ricevuti: 29/06/2022 14:35
Mist, Coperto
Mist, Coperto
 Vento da NO
Vento: NO 11 km/h
Temperatura: 12°C
P.to Rugiada: 12°C
Umidità: 100%
Barometro: 1017.6 hPa
Summary: Mist
Nuvole: Coperto
Visibility: 8 km
Cloud details: Coperto 152 m
2022/06/29 12:35 KHAF 291235Z AUTO 32006KT 5SM BR OVC005 12/12 A3005 RMK AO2
 
KHWD - Hayward, California, USA
Distance from station: N 44km
Dati ricevuti: 29/06/2022 13:54
Parz. nuvoloso
Parz. nuvoloso
 Vento da O
Vento: O 15 km/h
Temperatura: 13°C
P.to Rugiada: 11°C
Umidità: 88%
Barometro: 1016.3 hPa
Nuvole: Parz. nuvoloso
Visibility: 16 km
Cloud details: Parz. nuvoloso 244 m
2022/06/29 11:54 KHWD 291154Z AUTO 28008KT 10SM SCT008 13/11 A3001 RMK AO2 SLP172 T01330111 10156 20133 55000
KLVK - Livermore, California, USA
Distance from station: NNE 51km
Dati ricevuti: 29/06/2022 13:53
Sereno
Sereno
 Vento da NO
Vento: NO 13 km/h
Temperatura: 13°C
P.to Rugiada: 11°C
Umidità: 88%
Barometro: 1015.6 hPa
Nuvole: Sereno
Visibility: 16 km
2022/06/29 11:53 KLVK 291153Z AUTO 31007KT 10SM CLR 13/11 A2999 RMK AO2 SLP152 T01330106 10172 20133 55001